Terminal Aerodrome Forecast
Issued by NWS

Home | Current Version | Previous Version | Text Only | Print | Product List | Glossary On
Versions: 1 2 3 4 5 6 7 8 9 10 11 12 13 14 15 16 17
000
FTUS44 KTSA 170717 AAA
TAFRVS
TAF AMD
KRVS 170717Z 1707/1806 00000KT P6SM BKN025
      TEMPO 1708/1712 SCT030
     FM171200 32005KT P6SM OVC025
     FM171500 33006KT P6SM BKN025
     FM171900 31005KT P6SM SCT035 SCT250=

USA.gov is the U.S. government's official web portal to all federal, state and local government web resources and services.